Terminal Aerodrome Forecast
Issued by NWS

Home | Current Version | Previous Version | Text Only | Print | Product List | Glossary On
Versions: 1 2 3 4 5 6 7 8 9 10 11 12 13 14 15 16 17
000
FTUS46 KLOX 200618 AAA
TAFWJF
TAF AMD
KWJF 200618Z 2006/2106 24015G21KT P6SM SCT250
     FM201300 26022G30KT P6SM SCT012 SCT250
     FM201500 26025G35KT 6SM BLDU SCT025 SCT050
     FM201900 27034G44KT 6SM BLDU SCT001 SCT050 BKN250=

USA.gov is the U.S. government's official web portal to all federal, state and local government web resources and services.